sensor_id;sensor_type;location;lat;lon;timestamp;temperature;humidity
13796;SHT30;40911;51.552;9.874;2023-07-28T00:01:41;17.49;98.49
13796;SHT30;40911;51.552;9.874;2023-07-28T00:04:03;17.47;98.56
13796;SHT30;40911;51.552;9.874;2023-07-28T00:06:27;17.43;98.64
13796;SHT30;40911;51.552;9.874;2023-07-28T00:08:50;17.43;98.56
13796;SHT30;40911;51.552;9.874;2023-07-28T00:11:14;17.39;98.87
13796;SHT30;40911;51.552;9.874;2023-07-28T00:13:36;17.35;99.04
13796;SHT30;40911;51.552;9.874;2023-07-28T00:15:57;17.36;99.02
13796;SHT30;40911;51.552;9.874;2023-07-28T00:18:19;17.35;99.00
13796;SHT30;40911;51.552;9.874;2023-07-28T00:20:41;17.32;99.00
13796;SHT30;40911;51.552;9.874;2023-07-28T00:23:03;17.33;98.75
13796;SHT30;40911;51.552;9.874;2023-07-28T00:25:26;17.31;98.74
13796;SHT30;40911;51.552;9.874;2023-07-28T00:27:47;17.33;98.73
13796;SHT30;40911;51.552;9.874;2023-07-28T00:30:10;17.32;98.67
13796;SHT30;40911;51.552;9.874;2023-07-28T00:32:31;17.35;98.45
13796;SHT30;40911;51.552;9.874;2023-07-28T00:34:53;17.35;98.42
13796;SHT30;40911;51.552;9.874;2023-07-28T00:37:14;17.33;98.41
13796;SHT30;40911;51.552;9.874;2023-07-28T00:39:36;17.38;98.34
13796;SHT30;40911;51.552;9.874;2023-07-28T00:41:59;17.39;98.06
13796;SHT30;40911;51.552;9.874;2023-07-28T00:44:20;17.36;98.13
13796;SHT30;40911;51.552;9.874;2023-07-28T00:46:41;17.36;98.30
13796;SHT30;40911;51.552;9.874;2023-07-28T00:49:03;17.36;98.36
13796;SHT30;40911;51.552;9.874;2023-07-28T00:51:25;17.38;98.33
13796;SHT30;40911;51.552;9.874;2023-07-28T00:53:46;17.39;98.29
13796;SHT30;40911;51.552;9.874;2023-07-28T00:56:08;17.36;98.42
13796;SHT30;40911;51.552;9.874;2023-07-28T00:58:32;17.39;98.35
13796;SHT30;40911;51.552;9.874;2023-07-28T01:00:53;17.39;98.31
13796;SHT30;40911;51.552;9.874;2023-07-28T01:03:15;17.40;98.23
13796;SHT30;40911;51.552;9.874;2023-07-28T01:05:41;17.39;98.28
13796;SHT30;40911;51.552;9.874;2023-07-28T01:08:06;17.38;98.36
13796;SHT30;40911;51.552;9.874;2023-07-28T01:10:30;17.42;97.97
13796;SHT30;40911;51.552;9.874;2023-07-28T01:12:52;17.40;98.10
13796;SHT30;40911;51.552;9.874;2023-07-28T01:15:15;17.39;98.19
13796;SHT30;40911;51.552;9.874;2023-07-28T01:17:36;17.36;98.41
13796;SHT30;40911;51.552;9.874;2023-07-28T01:19:58;17.39;98.24
13796;SHT30;40911;51.552;9.874;2023-07-28T01:22:26;17.38;98.31
13796;SHT30;40911;51.552;9.874;2023-07-28T01:24:55;17.35;98.71
13796;SHT30;40911;51.552;9.874;2023-07-28T01:27:19;17.31;98.74
13796;SHT30;40911;51.552;9.874;2023-07-28T01:29:41;17.25;98.88
13796;SHT30;40911;51.552;9.874;2023-07-28T01:32:03;17.29;98.58
13796;SHT30;40911;51.552;9.874;2023-07-28T01:34:25;17.31;98.63
13796;SHT30;40911;51.552;9.874;2023-07-28T01:36:46;17.25;98.83
13796;SHT30;40911;51.552;9.874;2023-07-28T01:39:08;17.24;98.79
13796;SHT30;40911;51.552;9.874;2023-07-28T01:41:29;17.24;98.64
13796;SHT30;40911;51.552;9.874;2023-07-28T01:43:52;17.28;98.46
13796;SHT30;40911;51.552;9.874;2023-07-28T01:46:15;17.25;98.47
13796;SHT30;40911;51.552;9.874;2023-07-28T01:48:37;17.25;98.41
13796;SHT30;40911;51.552;9.874;2023-07-28T01:50:58;17.24;98.37
13796;SHT30;40911;51.552;9.874;2023-07-28T01:53:20;17.26;98.16
13796;SHT30;40911;51.552;9.874;2023-07-28T01:55:41;17.26;98.05
13796;SHT30;40911;51.552;9.874;2023-07-28T01:58:03;17.28;98.05
13796;SHT30;40911;51.552;9.874;2023-07-28T02:00:26;17.26;98.05
13796;SHT30;40911;51.552;9.874;2023-07-28T02:02:48;17.26;98.18
13796;SHT30;40911;51.552;9.874;2023-07-28T02:05:09;17.28;98.05
13796;SHT30;40911;51.552;9.874;2023-07-28T02:07:31;17.31;97.83
13796;SHT30;40911;51.552;9.874;2023-07-28T02:09:52;17.28;97.89
13796;SHT30;40911;51.552;9.874;2023-07-28T02:12:14;17.29;97.74
13796;SHT30;40911;51.552;9.874;2023-07-28T02:14:35;17.26;97.94
13796;SHT30;40911;51.552;9.874;2023-07-28T02:16:58;17.31;97.70
13796;SHT30;40911;51.552;9.874;2023-07-28T02:19:19;17.29;97.78
13796;SHT30;40911;51.552;9.874;2023-07-28T02:21:41;17.28;97.73
13796;SHT30;40911;51.552;9.874;2023-07-28T02:24:03;17.33;97.44
13796;SHT30;40911;51.552;9.874;2023-07-28T02:26:24;17.35;97.41
13796;SHT30;40911;51.552;9.874;2023-07-28T02:28:46;17.33;97.15
13796;SHT30;40911;51.552;9.874;2023-07-28T02:31:07;17.33;97.30
13796;SHT30;40911;51.552;9.874;2023-07-28T02:33:30;17.31;97.33
13796;SHT30;40911;51.552;9.874;2023-07-28T02:35:55;17.35;97.16
13796;SHT30;40911;51.552;9.874;2023-07-28T02:38:17;17.32;97.27
13796;SHT30;40911;51.552;9.874;2023-07-28T02:40:38;17.32;97.25
13796;SHT30;40911;51.552;9.874;2023-07-28T02:43:00;17.29;97.18
13796;SHT30;40911;51.552;9.874;2023-07-28T02:45:21;17.32;97.07
13796;SHT30;40911;51.552;9.874;2023-07-28T02:47:43;17.31;97.08
13796;SHT30;40911;51.552;9.874;2023-07-28T02:50:06;17.26;97.31
13796;SHT30;40911;51.552;9.874;2023-07-28T02:52:27;17.25;97.30
13796;SHT30;40911;51.552;9.874;2023-07-28T02:54:49;17.24;97.38
13796;SHT30;40911;51.552;9.874;2023-07-28T02:57:10;17.21;97.54
13796;SHT30;40911;51.552;9.874;2023-07-28T02:59:32;17.22;97.51
13796;SHT30;40911;51.552;9.874;2023-07-28T03:01:53;17.21;97.49
13796;SHT30;40911;51.552;9.874;2023-07-28T03:04:16;17.25;97.19
13796;SHT30;40911;51.552;9.874;2023-07-28T03:06:40;17.25;97.22
13796;SHT30;40911;51.552;9.874;2023-07-28T03:09:01;17.25;97.21
13796;SHT30;40911;51.552;9.874;2023-07-28T03:11:23;17.25;97.34
13796;SHT30;40911;51.552;9.874;2023-07-28T03:13:45;17.25;97.48
13796;SHT30;40911;51.552;9.874;2023-07-28T03:16:06;17.24;97.27
13796;SHT30;40911;51.552;9.874;2023-07-28T03:18:28;17.24;97.50
13796;SHT30;40911;51.552;9.874;2023-07-28T03:20:49;17.24;97.39
13796;SHT30;40911;51.552;9.874;2023-07-28T03:23:12;17.25;97.26
13796;SHT30;40911;51.552;9.874;2023-07-28T03:25:34;17.28;97.10
13796;SHT30;40911;51.552;9.874;2023-07-28T03:27:55;17.25;97.29
13796;SHT30;40911;51.552;9.874;2023-07-28T03:30:17;17.22;97.64
13796;SHT30;40911;51.552;9.874;2023-07-28T03:32:38;17.19;97.74
13796;SHT30;40911;51.552;9.874;2023-07-28T03:35:00;17.22;97.60
13796;SHT30;40911;51.552;9.874;2023-07-28T03:37:21;17.19;97.55
13796;SHT30;40911;51.552;9.874;2023-07-28T03:39:44;17.15;97.85
13796;SHT30;40911;51.552;9.874;2023-07-28T03:42:06;17.16;97.83
13796;SHT30;40911;51.552;9.874;2023-07-28T03:44:28;17.14;97.90
13796;SHT30;40911;51.552;9.874;2023-07-28T03:46:50;17.12;98.10
13796;SHT30;40911;51.552;9.874;2023-07-28T03:49:11;17.11;98.28
13796;SHT30;40911;51.552;9.874;2023-07-28T03:51:33;17.08;98.30
13796;SHT30;40911;51.552;9.874;2023-07-28T03:53:54;17.07;98.45
13796;SHT30;40911;51.552;9.874;2023-07-28T03:56:17;17.08;98.26
13796;SHT30;40911;51.552;9.874;2023-07-28T03:58:38;17.05;98.35
13796;SHT30;40911;51.552;9.874;2023-07-28T04:01:00;17.07;98.61
13796;SHT30;40911;51.552;9.874;2023-07-28T04:03:22;17.01;98.67
13796;SHT30;40911;51.552;9.874;2023-07-28T04:05:43;17.01;98.78
13796;SHT30;40911;51.552;9.874;2023-07-28T04:08:05;17.00;98.72
13796;SHT30;40911;51.552;9.874;2023-07-28T04:10:26;16.94;98.75
13796;SHT30;40911;51.552;9.874;2023-07-28T04:12:49;16.97;98.71
13796;SHT30;40911;51.552;9.874;2023-07-28T04:15:10;16.97;98.53
13796;SHT30;40911;51.552;9.874;2023-07-28T04:17:32;16.95;98.58
13796;SHT30;40911;51.552;9.874;2023-07-28T04:19:53;17.01;98.40
13796;SHT30;40911;51.552;9.874;2023-07-28T04:22:15;17.00;98.18
13796;SHT30;40911;51.552;9.874;2023-07-28T04:24:41;17.03;98.34
13796;SHT30;40911;51.552;9.874;2023-07-28T04:27:03;17.00;98.34
13796;SHT30;40911;51.552;9.874;2023-07-28T04:29:25;16.97;98.60
13796;SHT30;40911;51.552;9.874;2023-07-28T04:31:49;17.00;98.43
13796;SHT30;40911;51.552;9.874;2023-07-28T04:34:13;16.94;98.64
13796;SHT30;40911;51.552;9.874;2023-07-28T04:36:34;16.94;98.64
13796;SHT30;40911;51.552;9.874;2023-07-28T04:38:56;17.01;98.46
13796;SHT30;40911;51.552;9.874;2023-07-28T04:41:17;17.04;98.12
13796;SHT30;40911;51.552;9.874;2023-07-28T04:43:39;17.14;98.22
13796;SHT30;40911;51.552;9.874;2023-07-28T04:46:01;17.19;98.11
13796;SHT30;40911;51.552;9.874;2023-07-28T04:48:23;17.07;97.96
13796;SHT30;40911;51.552;9.874;2023-07-28T04:50:44;17.11;97.84
13796;SHT30;40911;51.552;9.874;2023-07-28T04:53:06;17.05;97.74
13796;SHT30;40911;51.552;9.874;2023-07-28T04:55:28;17.19;97.74
13796;SHT30;40911;51.552;9.874;2023-07-28T04:57:49;17.25;97.67
13796;SHT30;40911;51.552;9.874;2023-07-28T05:00:11;17.29;97.35
13796;SHT30;40911;51.552;9.874;2023-07-28T05:02:34;17.35;97.43
13796;SHT30;40911;51.552;9.874;2023-07-28T05:04:55;17.39;97.43
13796;SHT30;40911;51.552;9.874;2023-07-28T05:07:17;17.31;97.20
13796;SHT30;40911;51.552;9.874;2023-07-28T05:09:38;17.36;97.24
13796;SHT30;40911;51.552;9.874;2023-07-28T05:12:00;17.36;97.19
13796;SHT30;40911;51.552;9.874;2023-07-28T05:14:21;17.36;97.15
13796;SHT30;40911;51.552;9.874;2023-07-28T05:16:43;17.33;97.01
13796;SHT30;40911;51.552;9.874;2023-07-28T05:19:06;17.39;97.05
13796;SHT30;40911;51.552;9.874;2023-07-28T05:21:28;17.42;97.06
13796;SHT30;40911;51.552;9.874;2023-07-28T05:23:50;17.43;96.92
13796;SHT30;40911;51.552;9.874;2023-07-28T05:26:11;17.42;96.94
13796;SHT30;40911;51.552;9.874;2023-07-28T05:28:33;17.45;96.66
13796;SHT30;40911;51.552;9.874;2023-07-28T05:31:02;17.42;96.79
13796;SHT30;40911;51.552;9.874;2023-07-28T05:33:24;17.42;96.83
13796;SHT30;40911;51.552;9.874;2023-07-28T05:35:47;17.43;96.34
13796;SHT30;40911;51.552;9.874;2023-07-28T05:38:08;17.59;96.57
13796;SHT30;40911;51.552;9.874;2023-07-28T05:40:30;17.59;96.59
13796;SHT30;40911;51.552;9.874;2023-07-28T05:42:51;17.60;96.33
13796;SHT30;40911;51.552;9.874;2023-07-28T05:45:13;17.54;96.20
13796;SHT30;40911;51.552;9.874;2023-07-28T05:47:35;17.53;96.46
13796;SHT30;40911;51.552;9.874;2023-07-28T05:49:56;17.56;96.52
13796;SHT30;40911;51.552;9.874;2023-07-28T05:52:20;17.57;96.36
13796;SHT30;40911;51.552;9.874;2023-07-28T05:54:42;17.57;96.11
13796;SHT30;40911;51.552;9.874;2023-07-28T05:57:04;17.53;96.31
13796;SHT30;40911;51.552;9.874;2023-07-28T05:59:26;17.54;96.39
13796;SHT30;40911;51.552;9.874;2023-07-28T06:01:47;17.67;96.34
13796;SHT30;40911;51.552;9.874;2023-07-28T06:04:09;17.59;96.08
13796;SHT30;40911;51.552;9.874;2023-07-28T06:06:31;17.65;96.44
13796;SHT30;40911;51.552;9.874;2023-07-28T06:08:54;17.66;96.47
13796;SHT30;40911;51.552;9.874;2023-07-28T06:11:15;17.60;96.13
13796;SHT30;40911;51.552;9.874;2023-07-28T06:13:37;17.76;96.38
13796;SHT30;40911;51.552;9.874;2023-07-28T06:15:58;17.67;95.90
13796;SHT30;40911;51.552;9.874;2023-07-28T06:18:20;17.71;96.08
13796;SHT30;40911;51.552;9.874;2023-07-28T06:20:42;17.74;95.92
13796;SHT30;40911;51.552;9.874;2023-07-28T06:23:04;17.79;96.04
13796;SHT30;40911;51.552;9.874;2023-07-28T06:25:26;17.80;96.11
13796;SHT30;40911;51.552;9.874;2023-07-28T06:27:48;17.94;96.02
13796;SHT30;40911;51.552;9.874;2023-07-28T06:30:10;17.79;95.76
13796;SHT30;40911;51.552;9.874;2023-07-28T06:32:31;17.86;95.53
13796;SHT30;40911;51.552;9.874;2023-07-28T06:34:53;17.81;95.54
13796;SHT30;40911;51.552;9.874;2023-07-28T06:37:14;17.90;95.36
13796;SHT30;40911;51.552;9.874;2023-07-28T06:39:36;18.00;95.48
13796;SHT30;40911;51.552;9.874;2023-07-28T06:41:59;18.11;95.34
13796;SHT30;40911;51.552;9.874;2023-07-28T06:44:20;18.12;95.03
13796;SHT30;40911;51.552;9.874;2023-07-28T06:46:42;18.18;94.92
13796;SHT30;40911;51.552;9.874;2023-07-28T06:49:04;18.22;94.94
13796;SHT30;40911;51.552;9.874;2023-07-28T06:51:25;18.29;94.49
13796;SHT30;40911;51.552;9.874;2023-07-28T06:53:47;18.44;94.50
13796;SHT30;40911;51.552;9.874;2023-07-28T06:56:08;18.55;94.27
13796;SHT30;40911;51.552;9.874;2023-07-28T06:58:31;18.69;94.61
13796;SHT30;40911;51.552;9.874;2023-07-28T07:00:53;18.60;94.18
13796;SHT30;40911;51.552;9.874;2023-07-28T07:03:15;18.69;94.40
13796;SHT30;40911;51.552;9.874;2023-07-28T07:05:38;18.65;93.46
13796;SHT30;40911;51.552;9.874;2023-07-28T07:07:59;18.67;94.05
13796;SHT30;40911;51.552;9.874;2023-07-28T07:10:21;18.72;93.94
13796;SHT30;40911;51.552;9.874;2023-07-28T07:12:43;18.83;93.90
13796;SHT30;40911;51.552;9.874;2023-07-28T07:15:07;18.66;93.42
13796;SHT30;40911;51.552;9.874;2023-07-28T07:17:28;18.77;93.36
13796;SHT30;40911;51.552;9.874;2023-07-28T07:19:50;18.76;93.35
13796;SHT30;40911;51.552;9.874;2023-07-28T07:22:11;19.00;93.74
13796;SHT30;40911;51.552;9.874;2023-07-28T07:24:33;18.81;93.29
13796;SHT30;40911;51.552;9.874;2023-07-28T07:26:54;18.93;93.29
13796;SHT30;40911;51.552;9.874;2023-07-28T07:29:16;19.08;93.60
13796;SHT30;40911;51.552;9.874;2023-07-28T07:31:39;19.04;93.24
13796;SHT30;40911;51.552;9.874;2023-07-28T07:34:00;19.11;93.32
13796;SHT30;40911;51.552;9.874;2023-07-28T07:36:24;19.00;92.69
13796;SHT30;40911;51.552;9.874;2023-07-28T07:38:45;19.23;92.98
13796;SHT30;40911;51.552;9.874;2023-07-28T07:41:07;19.11;93.00
13796;SHT30;40911;51.552;9.874;2023-07-28T07:43:30;19.16;92.89
13796;SHT30;40911;51.552;9.874;2023-07-28T07:45:52;18.94;92.02
13796;SHT30;40911;51.552;9.874;2023-07-28T07:48:16;18.91;91.88
13796;SHT30;40911;51.552;9.874;2023-07-28T07:50:37;19.18;92.52
13796;SHT30;40911;51.552;9.874;2023-07-28T07:52:59;19.05;92.40
13796;SHT30;40911;51.552;9.874;2023-07-28T07:55:20;19.04;92.33
13796;SHT30;40911;51.552;9.874;2023-07-28T07:57:42;19.21;92.29
13796;SHT30;40911;51.552;9.874;2023-07-28T08:00:04;19.35;91.56
13796;SHT30;40911;51.552;9.874;2023-07-28T08:02:25;20.09;91.00
13796;SHT30;40911;51.552;9.874;2023-07-28T08:04:48;20.49;90.02
13796;SHT30;40911;51.552;9.874;2023-07-28T08:07:10;20.21;89.85
13796;SHT30;40911;51.552;9.874;2023-07-28T08:09:31;19.70;89.65
13796;SHT30;40911;51.552;9.874;2023-07-28T08:11:53;19.87;89.68
13796;SHT30;40911;51.552;9.874;2023-07-28T08:14:15;19.89;89.93
13796;SHT30;40911;51.552;9.874;2023-07-28T08:16:36;19.93;90.03
13796;SHT30;40911;51.552;9.874;2023-07-28T08:18:58;19.93;89.77
13796;SHT30;40911;51.552;9.874;2023-07-28T08:21:21;20.03;90.50
13796;SHT30;40911;51.552;9.874;2023-07-28T08:23:43;19.99;90.10
13796;SHT30;40911;51.552;9.874;2023-07-28T08:26:05;19.72;89.19
13796;SHT30;40911;51.552;9.874;2023-07-28T08:28:26;19.84;90.50
13796;SHT30;40911;51.552;9.874;2023-07-28T08:30:53;20.10;89.82
13796;SHT30;40911;51.552;9.874;2023-07-28T08:33:16;20.25;89.84
13796;SHT30;40911;51.552;9.874;2023-07-28T08:35:37;20.17;90.18
13796;SHT30;40911;51.552;9.874;2023-07-28T08:38:00;20.10;89.88
13796;SHT30;40911;51.552;9.874;2023-07-28T08:40:22;20.13;90.10
13796;SHT30;40911;51.552;9.874;2023-07-28T08:42:44;20.18;90.23
13796;SHT30;40911;51.552;9.874;2023-07-28T08:45:06;19.97;90.53
13796;SHT30;40911;51.552;9.874;2023-07-28T08:47:28;19.83;89.94
13796;SHT30;40911;51.552;9.874;2023-07-28T08:49:49;20.24;90.11
13796;SHT30;40911;51.552;9.874;2023-07-28T08:52:12;20.13;89.70
13796;SHT30;40911;51.552;9.874;2023-07-28T08:54:37;19.94;89.18
13796;SHT30;40911;51.552;9.874;2023-07-28T08:56:58;20.10;90.01
13796;SHT30;40911;51.552;9.874;2023-07-28T08:59:21;20.03;89.83
13796;SHT30;40911;51.552;9.874;2023-07-28T09:01:45;20.07;89.81
13796;SHT30;40911;51.552;9.874;2023-07-28T09:04:09;20.29;89.30
13796;SHT30;40911;51.552;9.874;2023-07-28T09:06:31;20.80;88.05
13796;SHT30;40911;51.552;9.874;2023-07-28T09:08:55;20.63;88.28
13796;SHT30;40911;51.552;9.874;2023-07-28T09:11:18;20.77;86.82
13796;SHT30;40911;51.552;9.874;2023-07-28T09:13:40;21.02;86.38
13796;SHT30;40911;51.552;9.874;2023-07-28T09:16:02;21.73;85.58
13796;SHT30;40911;51.552;9.874;2023-07-28T09:18:24;21.61;85.35
13796;SHT30;40911;51.552;9.874;2023-07-28T09:20:47;22.03;84.00
13796;SHT30;40911;51.552;9.874;2023-07-28T09:23:09;22.23;83.61
13796;SHT30;40911;51.552;9.874;2023-07-28T09:25:31;22.61;83.54
13796;SHT30;40911;51.552;9.874;2023-07-28T09:27:54;22.43;82.53
13796;SHT30;40911;51.552;9.874;2023-07-28T09:30:16;22.05;82.40
13796;SHT30;40911;51.552;9.874;2023-07-28T09:32:37;22.86;83.14
13796;SHT30;40911;51.552;9.874;2023-07-28T09:35:08;22.91;82.58
13796;SHT30;40911;51.552;9.874;2023-07-28T09:37:31;22.84;81.00
13796;SHT30;40911;51.552;9.874;2023-07-28T09:39:53;23.16;81.45
13796;SHT30;40911;51.552;9.874;2023-07-28T09:42:15;22.84;80.71
13796;SHT30;40911;51.552;9.874;2023-07-28T09:44:38;22.91;80.57
13796;SHT30;40911;51.552;9.874;2023-07-28T09:46:59;23.02;80.63
13796;SHT30;40911;51.552;9.874;2023-07-28T09:49:21;22.92;80.30
13796;SHT30;40911;51.552;9.874;2023-07-28T09:51:43;22.98;80.09
13796;SHT30;40911;51.552;9.874;2023-07-28T09:54:12;23.30;79.47
13796;SHT30;40911;51.552;9.874;2023-07-28T09:56:33;23.40;79.58
13796;SHT30;40911;51.552;9.874;2023-07-28T09:58:56;23.02;79.00
13796;SHT30;40911;51.552;9.874;2023-07-28T10:01:20;23.43;79.55
13796;SHT30;40911;51.552;9.874;2023-07-28T10:03:45;23.60;78.66
13796;SHT30;40911;51.552;9.874;2023-07-28T10:06:12;23.12;79.14
13796;SHT30;40911;51.552;9.874;2023-07-28T10:08:36;23.78;78.56
13796;SHT30;40911;51.552;9.874;2023-07-28T10:10:59;23.75;78.51
13796;SHT30;40911;51.552;9.874;2023-07-28T10:13:21;24.19;77.40
13796;SHT30;40911;51.552;9.874;2023-07-28T10:15:42;23.60;77.23
13796;SHT30;40911;51.552;9.874;2023-07-28T10:18:06;23.62;77.21
13796;SHT30;40911;51.552;9.874;2023-07-28T10:20:32;24.05;76.87
13796;SHT30;40911;51.552;9.874;2023-07-28T10:23:01;24.95;76.32
13796;SHT30;40911;51.552;9.874;2023-07-28T10:25:23;24.49;77.05
13796;SHT30;40911;51.552;9.874;2023-07-28T10:27:46;25.14;75.81
13796;SHT30;40911;51.552;9.874;2023-07-28T10:30:09;24.20;76.40
13796;SHT30;40911;51.552;9.874;2023-07-28T10:32:36;25.63;75.67
13796;SHT30;40911;51.552;9.874;2023-07-28T10:35:00;25.55;74.42
13796;SHT30;40911;51.552;9.874;2023-07-28T10:37:22;25.18;73.54
13796;SHT30;40911;51.552;9.874;2023-07-28T10:39:44;25.53;73.90
13796;SHT30;40911;51.552;9.874;2023-07-28T10:42:06;25.60;74.33
13796;SHT30;40911;51.552;9.874;2023-07-28T10:44:28;24.60;73.77
13796;SHT30;40911;51.552;9.874;2023-07-28T10:46:50;25.56;72.52
13796;SHT30;40911;51.552;9.874;2023-07-28T10:49:12;25.50;72.14
13796;SHT30;40911;51.552;9.874;2023-07-28T10:51:39;25.25;73.06
13796;SHT30;40911;51.552;9.874;2023-07-28T10:54:00;24.64;73.37
13796;SHT30;40911;51.552;9.874;2023-07-28T10:56:23;24.19;74.44
13796;SHT30;40911;51.552;9.874;2023-07-28T10:58:51;23.82;75.21
13796;SHT30;40911;51.552;9.874;2023-07-28T11:01:16;23.78;76.12
13796;SHT30;40911;51.552;9.874;2023-07-28T11:03:39;24.20;75.33
13796;SHT30;40911;51.552;9.874;2023-07-28T11:06:01;24.05;74.64
13796;SHT30;40911;51.552;9.874;2023-07-28T11:08:26;24.02;75.32
13796;SHT30;40911;51.552;9.874;2023-07-28T11:10:47;23.85;74.59
13796;SHT30;40911;51.552;9.874;2023-07-28T11:13:09;24.26;75.85
13796;SHT30;40911;51.552;9.874;2023-07-28T11:15:30;24.45;73.97
13796;SHT30;40911;51.552;9.874;2023-07-28T11:17:53;25.32;72.92
13796;SHT30;40911;51.552;9.874;2023-07-28T11:20:15;25.63;72.26
13796;SHT30;40911;51.552;9.874;2023-07-28T11:22:37;24.68;72.14
13796;SHT30;40911;51.552;9.874;2023-07-28T11:25:00;25.00;73.82
13796;SHT30;40911;51.552;9.874;2023-07-28T11:27:22;25.07;71.59
13796;SHT30;40911;51.552;9.874;2023-07-28T11:29:44;26.21;71.08
13796;SHT30;40911;51.552;9.874;2023-07-28T11:32:07;26.73;69.27
13796;SHT30;40911;51.552;9.874;2023-07-28T11:34:33;26.01;68.54
13796;SHT30;40911;51.552;9.874;2023-07-28T11:36:55;26.34;67.48
13796;SHT30;40911;51.552;9.874;2023-07-28T11:39:17;26.42;68.35
13796;SHT30;40911;51.552;9.874;2023-07-28T11:41:40;25.36;70.12
13796;SHT30;40911;51.552;9.874;2023-07-28T11:44:02;26.00;70.57
13796;SHT30;40911;51.552;9.874;2023-07-28T11:46:34;25.69;70.08
13796;SHT30;40911;51.552;9.874;2023-07-28T11:49:05;26.09;68.63
13796;SHT30;40911;51.552;9.874;2023-07-28T11:51:27;25.58;71.41
13796;SHT30;40911;51.552;9.874;2023-07-28T11:53:50;25.73;71.25
13796;SHT30;40911;51.552;9.874;2023-07-28T11:56:11;26.01;71.63
13796;SHT30;40911;51.552;9.874;2023-07-28T11:58:34;26.70;72.41
13796;SHT30;40911;51.552;9.874;2023-07-28T12:00:56;25.58;70.74
13796;SHT30;40911;51.552;9.874;2023-07-28T12:03:17;25.18;72.30
13796;SHT30;40911;51.552;9.874;2023-07-28T12:05:40;25.29;72.66
13796;SHT30;40911;51.552;9.874;2023-07-28T12:08:03;25.73;71.44
13796;SHT30;40911;51.552;9.874;2023-07-28T12:10:25;25.05;72.09
13796;SHT30;40911;51.552;9.874;2023-07-28T12:12:47;25.96;71.69
13796;SHT30;40911;51.552;9.874;2023-07-28T12:15:21;25.55;71.71
13796;SHT30;40911;51.552;9.874;2023-07-28T12:17:43;25.11;73.22
13796;SHT30;40911;51.552;9.874;2023-07-28T12:20:20;24.46;73.81
13796;SHT30;40911;51.552;9.874;2023-07-28T12:22:42;26.31;72.10
13796;SHT30;40911;51.552;9.874;2023-07-28T12:25:04;26.38;70.95
13796;SHT30;40911;51.552;9.874;2023-07-28T12:27:25;25.40;73.02
13796;SHT30;40911;51.552;9.874;2023-07-28T12:32:13;25.00;73.01
13796;SHT30;40911;51.552;9.874;2023-07-28T12:34:35;25.47;72.61
13796;SHT30;40911;51.552;9.874;2023-07-28T12:36:56;25.36;72.73
13796;SHT30;40911;51.552;9.874;2023-07-28T12:39:18;25.21;72.04
13796;SHT30;40911;51.552;9.874;2023-07-28T12:41:39;25.05;71.85
13796;SHT30;40911;51.552;9.874;2023-07-28T12:44:01;24.60;73.35
13796;SHT30;40911;51.552;9.874;2023-07-28T12:46:22;24.45;73.48
13796;SHT30;40911;51.552;9.874;2023-07-28T12:48:45;24.47;73.78
13796;SHT30;40911;51.552;9.874;2023-07-28T12:51:07;24.78;73.24
13796;SHT30;40911;51.552;9.874;2023-07-28T12:53:28;24.59;72.91
13796;SHT30;40911;51.552;9.874;2023-07-28T12:55:50;24.57;72.96
13796;SHT30;40911;51.552;9.874;2023-07-28T12:58:11;25.19;72.91
13796;SHT30;40911;51.552;9.874;2023-07-28T13:00:33;25.93;71.19
13796;SHT30;40911;51.552;9.874;2023-07-28T13:02:54;26.39;69.26
13796;SHT30;40911;51.552;9.874;2023-07-28T13:05:17;26.86;67.68
13796;SHT30;40911;51.552;9.874;2023-07-28T13:07:39;27.41;66.94
13796;SHT30;40911;51.552;9.874;2023-07-28T13:10:01;27.30;67.34
13796;SHT30;40911;51.552;9.874;2023-07-28T13:12:29;26.39;66.12
13796;SHT30;40911;51.552;9.874;2023-07-28T13:14:51;26.55;64.30
13796;SHT30;40911;51.552;9.874;2023-07-28T13:17:12;26.29;66.23
13796;SHT30;40911;51.552;9.874;2023-07-28T13:19:34;26.73;67.32
13796;SHT30;40911;51.552;9.874;2023-07-28T13:21:57;25.84;69.20
13796;SHT30;40911;51.552;9.874;2023-07-28T13:24:19;25.55;70.74
13796;SHT30;40911;51.552;9.874;2023-07-28T13:26:40;25.39;71.07
13796;SHT30;40911;51.552;9.874;2023-07-28T13:29:02;25.36;71.40
13796;SHT30;40911;51.552;9.874;2023-07-28T13:31:27;25.26;71.02
13796;SHT30;40911;51.552;9.874;2023-07-28T13:33:48;25.10;71.71
13796;SHT30;40911;51.552;9.874;2023-07-28T13:36:10;24.98;71.70
13796;SHT30;40911;51.552;9.874;2023-07-28T13:38:33;24.95;71.87
13796;SHT30;40911;51.552;9.874;2023-07-28T13:40:55;25.11;71.65
13796;SHT30;40911;51.552;9.874;2023-07-28T13:43:16;25.67;71.05
13796;SHT30;40911;51.552;9.874;2023-07-28T13:45:38;25.71;70.77
13796;SHT30;40911;51.552;9.874;2023-07-28T13:47:59;25.80;71.01
13796;SHT30;40911;51.552;9.874;2023-07-28T13:50:21;25.52;70.79
13796;SHT30;40911;51.552;9.874;2023-07-28T13:52:42;25.10;72.09
13796;SHT30;40911;51.552;9.874;2023-07-28T13:55:05;24.85;72.95
13796;SHT30;40911;51.552;9.874;2023-07-28T13:57:27;24.95;72.73
13796;SHT30;40911;51.552;9.874;2023-07-28T13:59:49;24.77;72.20
13796;SHT30;40911;51.552;9.874;2023-07-28T14:02:10;25.05;72.19
13796;SHT30;40911;51.552;9.874;2023-07-28T14:04:32;25.12;73.04
13796;SHT30;40911;51.552;9.874;2023-07-28T14:06:53;24.98;72.59
13796;SHT30;40911;51.552;9.874;2023-07-28T14:09:15;24.93;72.37
13796;SHT30;40911;51.552;9.874;2023-07-28T14:11:38;25.46;72.57
13796;SHT30;40911;51.552;9.874;2023-07-28T14:13:59;26.52;70.60
13796;SHT30;40911;51.552;9.874;2023-07-28T14:16:21;26.55;69.75
13796;SHT30;40911;51.552;9.874;2023-07-28T14:18:45;26.09;70.88
13796;SHT30;40911;51.552;9.874;2023-07-28T14:21:08;26.07;70.93
13796;SHT30;40911;51.552;9.874;2023-07-28T14:23:30;26.52;69.52
13796;SHT30;40911;51.552;9.874;2023-07-28T14:25:51;26.83;68.55
13796;SHT30;40911;51.552;9.874;2023-07-28T14:28:14;26.87;67.57
13796;SHT30;40911;51.552;9.874;2023-07-28T14:30:36;26.92;68.15
13796;SHT30;40911;51.552;9.874;2023-07-28T14:32:58;26.55;69.11
13796;SHT30;40911;51.552;9.874;2023-07-28T14:35:21;27.37;68.45
13796;SHT30;40911;51.552;9.874;2023-07-28T14:37:42;26.72;67.51
13796;SHT30;40911;51.552;9.874;2023-07-28T14:40:04;26.63;67.26
13796;SHT30;40911;51.552;9.874;2023-07-28T14:42:27;26.42;67.59
13796;SHT30;40911;51.552;9.874;2023-07-28T14:44:50;26.59;67.99
13796;SHT30;40911;51.552;9.874;2023-07-28T14:49:36;26.48;68.48
13796;SHT30;40911;51.552;9.874;2023-07-28T14:51:57;26.84;67.52
13796;SHT30;40911;51.552;9.874;2023-07-28T14:54:18;26.28;69.03
13796;SHT30;40911;51.552;9.874;2023-07-28T14:56:40;25.81;69.57
13796;SHT30;40911;51.552;9.874;2023-07-28T14:59:01;26.24;68.35
13796;SHT30;40911;51.552;9.874;2023-07-28T15:01:24;25.56;68.78
13796;SHT30;40911;51.552;9.874;2023-07-28T15:03:46;25.86;68.73